Terminal Aerodrome Forecast
Issued by NWS

Home | Current Version | Previous Version | Text Only | Print | Product List | Glossary On
Versions: 1 2 3 4 5 6 7 8 9 10 11 12 13 14 15 16 17 18 19 20 21 22 23 24 25 26 27
000
FTUS41 KBOX 310530
TAFACK
TAF
KACK 310530Z 3106/0106 23007KT P6SM BKN100
     FM311500 25011KT P6SM BKN080
     FM311700 25011G19KT P6SM SCT250
     FM010500 29009KT P6SM SCT250=

USA.gov is the U.S. government's official web portal to all federal, state and local government web resources and services.